Time;durP1;ratioP1;P1;durP2;ratioP2;P2;SDS_P1;SDS_P2;PMS_P1;PMS_P2;Temp;Humidity;BMP_temperature;BMP_pressure;BME280_temperature;BME280_humidity;BME280_pressure;Samples;Min_cycle;Max_cycle;Signal;HPM_P1;HPM_P2
2023/07/24 00:00:14;;;;;;;2.67;2.47;;;;;21.80;97860.00;;;;5113020;28;20040;-62
2023/07/24 00:02:41;;;;;;;3.97;2.80;;;;;21.80;97858.00;;;;5112138;28;20047;-63
2023/07/24 00:05:09;;;;;;;4.43;2.70;;;;;21.70;97850.00;;;;5112738;28;20051;-63
2023/07/24 00:07:36;;;;;;;3.17;2.60;;;;;21.60;97852.00;;;;5114180;28;20039;-63
2023/07/24 00:10:04;;;;;;;2.90;2.53;;;;;21.50;97838.00;;;;5113888;28;20039;-63
2023/07/24 00:12:31;;;;;;;3.47;2.78;;;;;21.40;97838.00;;;;5113905;28;20043;-63
2023/07/24 00:14:58;;;;;;;3.72;2.97;;;;;21.30;97839.00;;;;5114119;28;20049;-63
2023/07/24 00:17:25;;;;;;;4.45;3.08;;;;;21.30;97846.00;;;;5114039;28;20075;-63
2023/07/24 00:19:52;;;;;;;4.03;2.50;;;;;21.20;97839.00;;;;5111833;28;20450;-63
2023/07/24 00:22:18;;;;;;;3.58;2.67;;;;;21.20;97840.00;;;;5113012;27;20039;-63
2023/07/24 00:24:45;;;;;;;5.10;2.95;;;;;21.10;97850.00;;;;5113113;28;20048;-63
2023/07/24 00:27:13;;;;;;;4.47;3.00;;;;;21.00;97847.00;;;;5112749;28;20054;-64
2023/07/24 00:29:40;;;;;;;3.15;2.33;;;;;20.90;97848.00;;;;5112808;28;20113;-63
2023/07/24 00:32:07;;;;;;;3.80;2.70;;;;;21.00;97837.00;;;;5113412;28;20039;-63
2023/07/24 00:34:34;;;;;;;4.80;3.20;;;;;20.90;97823.00;;;;5113280;28;20517;-64
2023/07/24 00:37:01;;;;;;;6.88;3.05;;;;;20.80;97832.00;;;;5111985;28;20126;-63
2023/07/24 00:39:29;;;;;;;3.15;2.83;;;;;20.90;97843.00;;;;5112953;28;20058;-63
2023/07/24 00:41:56;;;;;;;3.63;2.90;;;;;20.90;97833.00;;;;5111771;28;20640;-63
2023/07/24 00:44:23;;;;;;;4.28;2.85;;;;;20.90;97827.00;;;;5111766;28;20050;-63
2023/07/24 00:46:54;;;;;;;4.65;2.13;;;;;20.80;97829.00;;;;5112055;28;20047;-63
2023/07/24 00:49:21;;;;;;;4.63;3.15;;;;;20.80;97829.00;;;;5113563;28;20042;-63
2023/07/24 00:51:48;;;;;;;3.90;3.30;;;;;20.80;97828.00;;;;5113190;28;20105;-63
2023/07/24 00:54:16;;;;;;;3.55;2.83;;;;;20.80;97818.00;;;;5113410;28;20451;-63
2023/07/24 00:56:45;;;;;;;3.67;2.83;;;;;20.80;97822.00;;;;5112795;28;20200;-63
2023/07/24 00:59:15;;;;;;;4.07;3.08;;;;;20.80;97816.00;;;;5111156;28;20040;-63
2023/07/24 01:01:42;;;;;;;3.67;2.85;;;;;20.80;97817.00;;;;5112930;28;20448;-63
2023/07/24 01:04:09;;;;;;;3.20;2.80;;;;;20.90;97813.00;;;;5112780;28;20044;-63
2023/07/24 01:06:36;;;;;;;3.63;3.08;;;;;21.00;97823.00;;;;5112567;28;20104;-63
2023/07/24 01:09:03;;;;;;;3.58;2.45;;;;;21.10;97828.00;;;;5112728;28;20036;-63
2023/07/24 01:11:36;;;;;;;4.50;2.95;;;;;21.30;97829.00;;;;5111005;28;20043;-63
2023/07/24 01:14:14;;;;;;;4.13;2.97;;;;;21.30;97825.00;;;;5112653;28;20051;-63
2023/07/24 01:16:43;;;;;;;4.47;3.22;;;;;21.20;97797.00;;;;5094633;28;20052;-63
2023/07/24 01:19:36;;;;;;;5.90;3.15;;;;;20.90;97729.00;;;;5112912;28;20043;-63
2023/07/24 01:22:22;;;;;;;2.97;2.65;;;;;20.50;97688.00;;;;5111704;28;20044;-64
2023/07/24 01:25:23;;;;;;;3.90;2.90;;;;;20.40;97697.00;;;;5112031;28;20043;-63
2023/07/24 01:27:52;;;;;;;4.65;2.88;;;;;20.30;97696.00;;;;5112103;28;20044;-63
2023/07/24 01:30:22;;;;;;;4.05;2.92;;;;;20.40;97728.00;;;;5112805;28;20051;-63
2023/07/24 01:32:49;;;;;;;3.85;2.40;;;;;20.40;97753.00;;;;5113024;28;20035;-63
2023/07/24 01:35:16;;;;;;;4.80;3.00;;;;;20.50;97767.00;;;;5095550;28;20111;-63
2023/07/24 01:37:44;;;;;;;4.18;3.08;;;;;20.50;97771.00;;;;5114121;28;20040;-63
2023/07/24 01:40:12;;;;;;;4.05;2.75;;;;;20.60;97771.00;;;;5116672;28;20492;-63
2023/07/24 01:42:39;;;;;;;3.70;3.03;;;;;20.50;97770.00;;;;5116185;28;20035;-64
2023/07/24 01:45:06;;;;;;;3.47;2.80;;;;;20.50;97776.00;;;;5115732;28;20518;-63
2023/07/24 01:47:33;;;;;;;3.67;2.92;;;;;20.70;97784.00;;;;5115073;28;20050;-63
2023/07/24 01:50:00;;;;;;;4.38;2.70;;;;;20.80;97779.00;;;;5115108;28;20097;-63
2023/07/24 01:52:27;;;;;;;5.35;2.70;;;;;20.90;97778.00;;;;5116935;28;20069;-63
2023/07/24 01:54:54;;;;;;;3.95;2.63;;;;;20.90;97777.00;;;;5114620;28;20051;-63
2023/07/24 01:57:21;;;;;;;4.13;3.13;;;;;20.90;97775.00;;;;5116019;28;20036;-63
2023/07/24 01:59:50;;;;;;;3.28;2.45;;;;;20.70;97770.00;;;;5113817;28;20043;-63
2023/07/24 02:02:17;;;;;;;2.90;2.53;;;;;20.60;97771.00;;;;5115704;28;20348;-63
2023/07/24 02:04:46;;;;;;;3.33;2.42;;;;;20.40;97770.00;;;;5115738;28;20043;-63
2023/07/24 02:07:13;;;;;;;4.78;2.63;;;;;20.20;97754.00;;;;5115678;28;20039;-64
2023/07/24 02:09:40;;;;;;;4.07;2.88;;;;;20.10;97754.00;;;;5096987;28;20048;-64
2023/07/24 02:12:06;;;;;;;4.78;2.97;;;;;20.00;97751.00;;;;5115463;28;20646;-63
2023/07/24 02:14:33;;;;;;;6.70;3.25;;;;;19.90;97746.00;;;;5114056;28;20416;-63
2023/07/24 02:17:00;;;;;;;5.03;2.58;;;;;19.80;97753.00;;;;5115329;28;20407;-63
2023/07/24 02:19:27;;;;;;;4.22;3.38;;;;;19.70;97728.00;;;;5113824;28;20130;-63
2023/07/24 02:21:54;;;;;;;5.28;3.17;;;;;19.60;97724.00;;;;5115563;28;20044;-63
2023/07/24 02:24:22;;;;;;;3.90;2.97;;;;;19.60;97724.00;;;;5115501;28;20064;-63
2023/07/24 02:26:49;;;;;;;3.60;2.97;;;;;19.60;97740.00;;;;5115151;27;20044;-63
2023/07/24 02:29:16;;;;;;;3.53;2.60;;;;;19.70;97733.00;;;;5113449;28;20051;-63
2023/07/24 02:31:43;;;;;;;4.90;3.50;;;;;19.80;97737.00;;;;5113666;28;20484;-64
2023/07/24 02:34:09;;;;;;;4.68;3.08;;;;;19.90;97734.00;;;;5113898;28;20072;-63
2023/07/24 02:36:41;;;;;;;4.70;3.20;;;;;19.90;97734.00;;;;5115227;28;20042;-63
2023/07/24 02:39:08;;;;;;;3.60;3.03;;;;;20.00;97737.00;;;;5114835;28;20036;-63
2023/07/24 02:41:35;;;;;;;4.97;2.88;;;;;20.20;97742.00;;;;5113556;28;20040;-63
2023/07/24 02:44:03;;;;;;;5.82;3.67;;;;;20.30;97738.00;;;;5114800;28;20062;-63
2023/07/24 02:46:30;;;;;;;3.92;3.33;;;;;20.40;97737.00;;;;5114804;28;20112;-63
2023/07/24 02:48:58;;;;;;;4.00;3.25;;;;;20.40;97723.00;;;;5114440;28;20101;-63
2023/07/24 02:51:24;;;;;;;4.00;2.70;;;;;20.20;97713.00;;;;5114672;28;20450;-63
2023/07/24 02:53:53;;;;;;;5.07;3.00;;;;;20.10;97704.00;;;;5113519;28;20058;-63
2023/07/24 02:56:20;;;;;;;4.38;3.20;;;;;19.90;97695.00;;;;5114449;28;20054;-63
2023/07/24 02:58:47;;;;;;;5.70;3.17;;;;;19.90;97693.00;;;;5114604;28;20495;-63
2023/07/24 03:01:14;;;;;;;5.00;3.30;;;;;20.00;97693.00;;;;5114192;28;20043;-63
2023/07/24 03:03:41;;;;;;;5.60;3.20;;;;;19.90;97670.00;;;;5114626;28;20511;-63
2023/07/24 03:06:08;;;;;;;4.18;2.90;;;;;19.70;97659.00;;;;5113644;28;20424;-63
2023/07/24 03:08:35;;;;;;;4.65;3.40;;;;;19.50;97670.00;;;;5114853;28;20051;-63
2023/07/24 03:11:05;;;;;;;4.03;3.10;;;;;19.60;97674.00;;;;5114714;28;20028;-63
2023/07/24 03:13:32;;;;;;;4.35;3.42;;;;;19.80;97653.00;;;;5114421;28;20046;-63
2023/07/24 03:15:59;;;;;;;7.00;5.15;;;;;19.70;97640.00;;;;5113188;28;20055;-63
2023/07/24 03:18:25;;;;;;;4.28;3.88;;;;;19.60;97636.00;;;;5112910;28;20050;-63
2023/07/24 03:20:52;;;;;;;4.80;3.65;;;;;19.60;97634.00;;;;5113860;28;20627;-63
2023/07/24 03:23:20;;;;;;;4.82;3.17;;;;;19.50;97637.00;;;;5112782;28;20047;-63
2023/07/24 03:25:47;;;;;;;5.05;3.60;;;;;19.40;97641.00;;;;5112739;28;20500;-63
2023/07/24 03:28:13;;;;;;;4.47;3.65;;;;;19.30;97642.00;;;;5112982;28;20046;-62
2023/07/24 03:30:40;;;;;;;5.55;3.55;;;;;19.40;97638.00;;;;5095956;28;20143;-63
2023/07/24 03:33:09;;;;;;;4.95;3.45;;;;;19.30;97628.00;;;;5095927;28;20063;-62
2023/07/24 03:35:36;;;;;;;4.88;3.30;;;;;19.20;97628.00;;;;5113755;28;20494;-62
2023/07/24 03:38:02;;;;;;;6.32;3.80;;;;;19.10;97621.00;;;;5113683;28;20508;-62
2023/07/24 03:40:30;;;;;;;5.00;3.92;;;;;19.20;97617.00;;;;5112332;28;20448;-62
2023/07/24 03:42:57;;;;;;;4.53;3.20;;;;;19.20;97631.00;;;;5113468;28;20046;-62
2023/07/24 03:45:23;;;;;;;4.72;3.88;;;;;19.30;97628.00;;;;5113565;28;20032;-62
2023/07/24 03:47:50;;;;;;;6.22;4.60;;;;;19.30;97625.00;;;;5113606;28;20047;-63
2023/07/24 03:50:17;;;;;;;4.63;3.70;;;;;19.30;97635.00;;;;5112062;28;20130;-63
2023/07/24 03:52:43;;;;;;;6.13;3.35;;;;;19.30;97653.00;;;;5113450;28;20065;-62
2023/07/24 03:55:11;;;;;;;4.07;3.58;;;;;19.50;97657.00;;;;5112170;28;20043;-63
2023/07/24 03:57:38;;;;;;;4.47;3.78;;;;;19.60;97652.00;;;;5112190;28;20046;-63
2023/07/24 04:00:06;;;;;;;32.53;24.73;;;;;19.60;97664.00;;;;5111893;28;20138;-62
2023/07/24 04:02:39;;;;;;;16.98;12.10;;;;;19.50;97655.00;;;;5113246;28;20051;-63
2023/07/24 04:05:06;;;;;;;4.10;3.60;;;;;19.30;97657.00;;;;5112208;28;20043;-63
2023/07/24 04:07:33;;;;;;;5.43;4.32;;;;;19.40;97646.00;;;;5111761;28;20093;-63
2023/07/24 04:09:59;;;;;;;9.90;7.32;;;;;19.60;97651.00;;;;5111847;28;20470;-63
2023/07/24 04:12:26;;;;;;;6.40;4.30;;;;;19.60;97662.00;;;;5113190;28;20052;-62
2023/07/24 04:14:53;;;;;;;8.15;6.38;;;;;19.70;97657.00;;;;5113140;28;20126;-62
2023/07/24 04:17:20;;;;;;;8.40;4.65;;;;;19.70;97657.00;;;;5111746;28;20097;-63
2023/07/24 04:19:46;;;;;;;4.05;3.30;;;;;19.50;97642.00;;;;5111446;28;20504;-62
2023/07/24 04:22:13;;;;;;;8.65;4.30;;;;;19.40;97652.00;;;;5111499;28;20472;-62
2023/07/24 04:24:40;;;;;;;4.85;3.40;;;;;19.40;97654.00;;;;5112883;28;20050;-62
2023/07/24 04:27:07;;;;;;;6.10;4.32;;;;;19.50;97657.00;;;;5112827;28;20047;-62
2023/07/24 04:29:33;;;;;;;4.55;3.25;;;;;19.50;97653.00;;;;5111513;28;20093;-62
2023/07/24 04:32:00;;;;;;;5.13;4.25;;;;;19.70;97668.00;;;;5111561;28;20039;-62
2023/07/24 04:34:27;;;;;;;4.07;3.22;;;;;19.70;97659.00;;;;5111304;28;20523;-62
2023/07/24 04:36:53;;;;;;;6.47;3.60;;;;;19.70;97666.00;;;;5111660;28;20039;-62
2023/07/24 04:39:20;;;;;;;3.88;2.92;;;;;19.90;97678.00;;;;5112443;28;20092;-62
2023/07/24 04:41:47;;;;;;;3.78;3.30;;;;;19.90;97677.00;;;;5111190;28;20039;-62
2023/07/24 04:44:16;;;;;;;5.72;3.50;;;;;20.00;97671.00;;;;5112987;28;20396;-62
2023/07/24 04:46:43;;;;;;;5.75;3.55;;;;;20.10;97655.00;;;;5112768;28;20078;-63
2023/07/24 04:49:10;;;;;;;4.78;3.60;;;;;20.10;97638.00;;;;5110969;28;20135;-63
2023/07/24 04:51:36;;;;;;;10.60;7.13;;;;;20.20;97635.00;;;;5112492;28;20044;-63
2023/07/24 04:54:03;;;;;;;5.10;3.60;;;;;20.30;97637.00;;;;5111253;28;20135;-63
2023/07/24 04:56:30;;;;;;;5.72;4.10;;;;;20.40;97636.00;;;;5110995;28;20108;-62
2023/07/24 04:58:57;;;;;;;5.07;3.72;;;;;20.50;97646.00;;;;5112401;28;20055;-63
2023/07/24 05:01:24;;;;;;;7.10;3.97;;;;;20.60;97634.00;;;;5111934;28;20043;-63
2023/07/24 05:03:51;;;;;;;9.05;7.07;;;;;20.60;97646.00;;;;5112392;28;20040;-63
2023/07/24 05:06:20;;;;;;;5.40;3.50;;;;;20.60;97654.00;;;;5112410;28;20071;-63
2023/07/24 05:08:47;;;;;;;5.50;4.15;;;;;20.60;97654.00;;;;5112420;28;20054;-63
2023/07/24 05:11:13;;;;;;;5.07;3.72;;;;;20.60;97656.00;;;;5093757;28;20046;-63
2023/07/24 05:13:40;;;;;;;6.18;3.92;;;;;20.60;97654.00;;;;5114770;28;20089;-63
2023/07/24 05:16:07;;;;;;;4.25;3.50;;;;;20.50;97666.00;;;;5116540;28;20047;-63
2023/07/24 05:18:33;;;;;;;5.65;4.00;;;;;20.50;97648.00;;;;5116860;28;20450;-63
2023/07/24 05:21:00;;;;;;;4.25;3.67;;;;;20.60;97645.00;;;;5116134;28;20055;-63
2023/07/24 05:23:27;;;;;;;6.13;4.40;;;;;20.70;97646.00;;;;5115055;28;20142;-63
2023/07/24 05:25:58;;;;;;;4.45;3.25;;;;;20.80;97633.00;;;;5116529;28;20048;-63
2023/07/24 05:28:29;;;;;;;5.50;4.18;;;;;20.90;97641.00;;;;5116349;28;20040;-63
2023/07/24 05:31:01;;;;;;;4.85;3.50;;;;;20.90;97656.00;;;;5097984;28;20415;-63
2023/07/24 05:33:28;;;;;;;3.60;3.30;;;;;21.00;97653.00;;;;5116314;28;20491;-63
2023/07/24 05:36:03;;;;;;;6.85;5.03;;;;;21.10;97650.00;;;;5116325;28;20044;-63
2023/07/24 05:38:30;;;;;;;9.00;6.07;;;;;21.00;97649.00;;;;5116660;28;20047;-63
2023/07/24 05:40:58;;;;;;;8.00;3.90;;;;;20.90;97652.00;;;;5116101;28;20043;-63
2023/07/24 05:43:25;;;;;;;8.45;5.95;;;;;20.90;97648.00;;;;5116198;27;20058;-64
2023/07/24 05:45:52;;;;;;;5.93;4.32;;;;;21.00;97655.00;;;;5114876;28;20044;-64
2023/07/24 05:48:19;;;;;;;7.03;3.88;;;;;21.10;97658.00;;;;5116097;28;20035;-64
2023/07/24 05:50:45;;;;;;;6.75;3.97;;;;;21.10;97651.00;;;;5114635;28;20585;-62
2023/07/24 05:53:12;;;;;;;6.63;3.85;;;;;21.00;97651.00;;;;5114608;28;20046;-63
2023/07/24 05:55:39;;;;;;;7.53;3.60;;;;;21.10;97654.00;;;;5115576;28;20457;-63
2023/07/24 05:58:06;;;;;;;8.05;3.72;;;;;21.30;97648.00;;;;5115948;28;20039;-63
2023/07/24 06:00:33;;;;;;;7.72;4.72;;;;;21.30;97651.00;;;;5115385;28;20120;-63
2023/07/24 06:03:00;;;;;;;6.72;4.32;;;;;21.40;97656.00;;;;5115605;28;20040;-63
2023/07/24 06:05:26;;;;;;;6.78;4.22;;;;;21.40;97642.00;;;;5115643;28;20322;-63
2023/07/24 06:07:53;;;;;;;5.32;4.28;;;;;21.50;97651.00;;;;5115600;28;20040;-63
2023/07/24 06:10:20;;;;;;;5.68;4.53;;;;;21.60;97630.00;;;;5115560;28;20544;-63
2023/07/24 06:12:47;;;;;;;6.80;4.53;;;;;21.70;97637.00;;;;5115707;28;20059;-63
2023/07/24 06:15:14;;;;;;;5.05;4.28;;;;;21.80;97638.00;;;;5114566;28;20479;-63
2023/07/24 06:17:41;;;;;;;7.45;4.32;;;;;21.70;97646.00;;;;5115878;28;20036;-63
2023/07/24 06:20:08;;;;;;;7.38;4.28;;;;;21.70;97637.00;;;;5115137;28;20534;-63
2023/07/24 06:22:34;;;;;;;7.05;4.22;;;;;21.80;97643.00;;;;5113988;28;20036;-63
2023/07/24 06:25:01;;;;;;;6.68;4.63;;;;;21.80;97645.00;;;;5113349;28;20048;-63
2023/07/24 06:27:28;;;;;;;4.82;3.95;;;;;21.80;97656.00;;;;5114003;28;20062;-63
2023/07/24 06:29:54;;;;;;;14.00;4.53;;;;;21.90;97656.00;;;;5115086;28;20089;-63
2023/07/24 06:32:39;;;;;;;5.57;4.00;;;;;22.00;97651.00;;;;5115392;28;20125;-63
2023/07/24 06:35:06;;;;;;;8.55;4.55;;;;;22.10;97658.00;;;;5115100;27;20046;-63
2023/07/24 06:37:32;;;;;;;9.98;4.18;;;;;22.20;97662.00;;;;5113779;28;20086;-63
2023/07/24 06:39:59;;;;;;;7.30;4.32;;;;;22.60;97659.00;;;;5113607;28;20047;-63
2023/07/24 06:42:26;;;;;;;5.18;4.13;;;;;22.90;97674.00;;;;5114849;28;20409;-63
2023/07/24 06:44:53;;;;;;;5.82;4.10;;;;;23.20;97668.00;;;;5096879;28;20130;-63
2023/07/24 06:47:19;;;;;;;5.47;4.25;;;;;23.30;97655.00;;;;5114358;28;20043;-63
2023/07/24 06:49:46;;;;;;;5.60;4.25;;;;;23.40;97659.00;;;;5097227;28;20100;-63
2023/07/24 06:52:13;;;;;;;5.53;4.20;;;;;23.60;97653.00;;;;5096998;28;20067;-63
2023/07/24 06:54:40;;;;;;;6.65;4.50;;;;;23.70;97652.00;;;;5115561;28;20065;-63
2023/07/24 06:57:07;;;;;;;7.32;4.10;;;;;23.80;97658.00;;;;5115059;28;20047;-63
2023/07/24 06:59:33;;;;;;;9.25;4.40;;;;;23.90;97655.00;;;;5114848;28;20469;-63
2023/07/24 07:02:00;;;;;;;7.88;4.78;;;;;23.90;97650.00;;;;5114928;28;20104;-64
2023/07/24 07:04:27;;;;;;;8.05;4.63;;;;;23.80;97658.00;;;;5115290;28;20054;-63
2023/07/24 07:06:54;;;;;;;9.30;4.82;;;;;23.90;97655.00;;;;5115165;28;20093;-63
2023/07/24 07:09:20;;;;;;;7.20;4.43;;;;;23.90;97655.00;;;;5114740;28;20050;-63
2023/07/24 07:11:47;;;;;;;7.15;4.68;;;;;23.80;97661.00;;;;5113793;28;20130;-63
2023/07/24 07:14:14;;;;;;;7.43;4.50;;;;;23.90;97661.00;;;;5113414;28;20039;-63
2023/07/24 07:16:44;;;;;;;11.57;4.88;;;;;23.80;97647.00;;;;5114538;28;20074;-63
2023/07/24 07:19:11;;;;;;;8.27;4.40;;;;;23.80;97658.00;;;;5114556;28;20150;-63
2023/07/24 07:21:37;;;;;;;9.32;4.93;;;;;23.90;97659.00;;;;5113213;28;20039;-63
2023/07/24 07:24:04;;;;;;;5.72;4.40;;;;;23.90;97667.00;;;;5114575;28;20048;-63
2023/07/24 07:26:31;;;;;;;6.68;4.85;;;;;23.80;97674.00;;;;5114341;28;20050;-63
2023/07/24 07:28:59;;;;;;;8.88;5.10;;;;;23.70;97675.00;;;;5114473;28;20231;-64
2023/07/24 07:31:26;;;;;;;7.22;4.97;;;;;23.70;97681.00;;;;5113049;28;20035;-63
2023/07/24 07:33:53;;;;;;;5.53;4.32;;;;;23.60;97670.00;;;;5114312;28;20538;-63
2023/07/24 07:36:21;;;;;;;6.68;4.72;;;;;23.70;97674.00;;;;5113707;28;20054;-63
2023/07/24 07:38:49;;;;;;;8.40;5.85;;;;;23.70;97670.00;;;;5114126;28;20043;-63
2023/07/24 07:41:15;;;;;;;7.20;5.05;;;;;23.80;97660.00;;;;5113969;28;20415;-63
2023/07/24 07:43:42;;;;;;;7.10;5.03;;;;;23.90;97654.00;;;;5115423;28;20051;-65
2023/07/24 07:46:09;;;;;;;6.47;4.35;;;;;24.00;97653.00;;;;5115912;28;20047;-65
2023/07/24 07:48:36;;;;;;;7.05;5.10;;;;;24.10;97656.00;;;;5114022;28;20047;-65
2023/07/24 07:51:02;;;;;;;8.52;5.05;;;;;24.20;97649.00;;;;5114259;28;20122;-65
2023/07/24 07:53:29;;;;;;;6.05;4.72;;;;;24.30;97647.00;;;;5114396;28;20054;-65
2023/07/24 07:55:57;;;;;;;5.63;4.60;;;;;24.40;97646.00;;;;5112485;28;20052;-64
2023/07/24 07:58:24;;;;;;;6.50;4.75;;;;;24.50;97634.00;;;;5112334;28;20159;-66
2023/07/24 08:00:50;;;;;;;6.20;4.40;;;;;24.60;97635.00;;;;5113683;28;20039;-66
2023/07/24 08:03:17;;;;;;;6.28;4.75;;;;;24.70;97633.00;;;;5112632;28;20047;-65
2023/07/24 08:05:44;;;;;;;4.97;4.13;;;;;24.90;97637.00;;;;5113855;28;20112;-67
2023/07/24 08:08:11;;;;;;;5.32;4.57;;;;;25.00;97651.00;;;;5113497;28;20460;-65
2023/07/24 08:10:38;;;;;;;6.15;4.28;;;;;25.20;97648.00;;;;5113270;28;20040;-67
2023/07/24 08:13:05;;;;;;;6.22;4.60;;;;;25.30;97661.00;;;;5113489;28;20040;-66
2023/07/24 08:15:36;;;;;;;7.63;4.63;;;;;25.40;97667.00;;;;5113431;28;20490;-66
2023/07/24 08:18:04;;;;;;;6.00;4.30;;;;;25.30;97666.00;;;;5112189;28;20043;-66
2023/07/24 08:20:34;;;;;;;6.70;4.35;;;;;25.20;97655.00;;;;5113268;28;20118;-66
2023/07/24 08:23:01;;;;;;;7.55;5.20;;;;;25.10;97674.00;;;;5113142;28;20130;-66
2023/07/24 08:25:28;;;;;;;5.88;4.00;;;;;25.30;97662.00;;;;5112062;28;20407;-66
2023/07/24 08:27:55;;;;;;;5.88;4.55;;;;;25.50;97663.00;;;;5113192;28;20047;-66
2023/07/24 08:30:33;;;;;;;6.88;4.03;;;;;25.50;97648.00;;;;5113205;28;20039;-66
2023/07/24 08:33:00;;;;;;;7.18;4.15;;;;;25.70;97619.00;;;;5111931;28;20074;-66
2023/07/24 08:35:27;;;;;;;13.13;4.13;;;;;25.70;97626.00;;;;5113086;28;20047;-66
2023/07/24 08:37:53;;;;;;;4.38;3.50;;;;;25.60;97622.00;;;;5113130;28;20044;-65
2023/07/24 08:40:20;;;;;;;4.97;3.92;;;;;25.30;97622.00;;;;5112783;28;20055;-66
2023/07/24 08:42:50;;;;;;;5.45;3.50;;;;;25.20;97602.00;;;;5112930;28;20043;-66
2023/07/24 08:45:18;;;;;;;5.32;3.42;;;;;25.10;97603.00;;;;5094855;28;20184;-66
2023/07/24 08:47:45;;;;;;;4.07;3.47;;;;;25.10;97588.00;;;;5112593;28;20048;-66
2023/07/24 08:50:14;;;;;;;4.43;3.55;;;;;25.00;97584.00;;;;5112612;28;20469;-65
2023/07/24 08:52:44;;;;;;;5.38;3.40;;;;;25.00;97581.00;;;;5111677;28;20059;-66
2023/07/24 08:55:14;;;;;;;4.82;3.40;;;;;25.10;97585.00;;;;5095518;28;20052;-66
2023/07/24 08:57:42;;;;;;;5.78;3.80;;;;;25.20;97579.00;;;;5113676;28;20075;-66
2023/07/24 09:00:09;;;;;;;5.20;3.60;;;;;25.30;97600.00;;;;5113267;28;20097;-66
2023/07/24 09:02:36;;;;;;;5.18;4.00;;;;;25.30;97598.00;;;;5111272;28;20040;-66
2023/07/24 09:05:07;;;;;;;9.48;3.50;;;;;25.30;97593.00;;;;5111401;28;20044;-65
2023/07/24 09:07:34;;;;;;;5.63;3.70;;;;;25.40;97577.00;;;;5112185;28;20043;-65
2023/07/24 09:10:00;;;;;;;5.30;3.45;;;;;25.40;97567.00;;;;5112668;28;20385;-66
2023/07/24 09:12:27;;;;;;;5.28;3.47;;;;;25.60;97563.00;;;;5094533;28;20067;-66
2023/07/24 09:15:02;;;;;;;4.15;3.00;;;;;25.80;97556.00;;;;5112662;28;20044;-66
2023/07/24 09:17:29;;;;;;;7.70;3.25;;;;;26.10;97538.00;;;;5112807;28;20092;-65
2023/07/24 09:19:57;;;;;;;5.40;3.30;;;;;26.20;97539.00;;;;5112510;28;20091;-65
2023/07/24 09:22:26;;;;;;;5.60;3.88;;;;;26.50;97544.00;;;;5112456;28;20031;-64
2023/07/24 09:24:55;;;;;;;5.20;3.58;;;;;26.60;97530.00;;;;5112280;28;20047;-65
2023/07/24 09:27:27;;;;;;;4.45;3.63;;;;;26.80;97522.00;;;;5111161;28;20040;-65
2023/07/24 09:29:56;;;;;;;4.10;3.20;;;;;26.70;97527.00;;;;5112267;28;20050;-64
2023/07/24 09:32:25;;;;;;;5.10;3.60;;;;;26.70;97548.00;;;;5110878;28;20044;-65
2023/07/24 09:34:54;;;;;;;4.75;3.38;;;;;26.70;97553.00;;;;5112169;28;20048;-64
2023/07/24 09:37:28;;;;;;;5.15;3.33;;;;;26.80;97569.00;;;;5111145;28;20130;-65
2023/07/24 09:39:54;;;;;;;5.55;3.55;;;;;26.60;97569.00;;;;5112403;28;20104;-65
2023/07/24 09:42:35;;;;;;;4.53;3.72;;;;;26.50;97570.00;;;;5112213;28;20500;-65
2023/07/24 09:45:22;;;;;;;3.92;3.25;;;;;26.40;97571.00;;;;5111839;28;20085;-65
2023/07/24 09:47:52;;;;;;;5.57;3.20;;;;;26.40;97568.00;;;;5113310;28;20036;-65
2023/07/24 09:50:23;;;;;;;3.70;3.10;;;;;26.50;97571.00;;;;5113055;28;20047;-65
2023/07/24 09:52:50;;;;;;;4.00;3.47;;;;;26.70;97567.00;;;;5113199;28;20093;-65
2023/07/24 09:55:32;;;;;;;4.55;3.42;;;;;27.00;97570.00;;;;5112543;28;20082;-64
2023/07/24 09:58:00;;;;;;;3.55;3.20;;;;;27.10;97580.00;;;;5112059;28;20050;-65
2023/07/24 10:00:28;;;;;;;4.20;3.50;;;;;27.10;97588.00;;;;5114389;28;20595;-65
2023/07/24 10:02:55;;;;;;;4.88;3.20;;;;;27.20;97593.00;;;;5116073;28;20117;-65
2023/07/24 10:05:23;;;;;;;4.93;3.90;;;;;27.20;97585.00;;;;5116351;28;20373;-65
2023/07/24 10:07:51;;;;;;;5.38;3.20;;;;;27.30;97599.00;;;;5118833;28;20092;-65
2023/07/24 10:10:18;;;;;;;5.38;3.40;;;;;27.30;97600.00;;;;5127774;28;20032;-62
2023/07/24 10:12:45;;;;;;;4.03;3.35;;;;;27.20;97589.00;;;;5128242;28;20031;-62
2023/07/24 10:15:14;;;;;;;4.78;3.10;;;;;27.20;97593.00;;;;5110449;28;20055;-62
2023/07/24 10:17:41;;;;;;;5.55;3.22;;;;;27.40;97592.00;;;;5125011;28;20082;-62
2023/07/24 10:20:11;;;;;;;7.18;3.25;;;;;27.70;97593.00;;;;5124644;28;20113;-62
2023/07/24 10:22:41;;;;;;;5.10;3.42;;;;;27.70;97603.00;;;;5123451;28;20115;-62
2023/07/24 10:25:09;;;;;;;5.43;3.33;;;;;27.70;97597.00;;;;5121282;28;20079;-63
2023/07/24 10:27:46;;;;;;;4.18;3.50;;;;;27.60;97583.00;;;;5106356;28;20048;-63
2023/07/24 10:30:16;;;;;;;4.72;3.70;;;;;27.40;97589.00;;;;5122934;28;20126;-62
2023/07/24 10:33:20;;;;;;;8.57;3.80;;;;;27.40;97587.00;;;;5110431;28;20051;-61
2023/07/24 10:35:52;;;;;;;4.18;3.40;;;;;27.30;97584.00;;;;5132628;28;20144;-62
2023/07/24 10:38:19;;;;;;;3.92;3.35;;;;;27.30;97577.00;;;;5133712;28;20048;-61
2023/07/24 10:40:52;;;;;;;5.78;3.70;;;;;27.20;97583.00;;;;5132112;28;20059;-62
2023/07/24 10:43:20;;;;;;;5.35;3.45;;;;;27.10;97583.00;;;;5138855;28;20032;-61
2023/07/24 10:45:52;;;;;;;4.25;3.50;;;;;27.10;97584.00;;;;5139078;28;20087;-62
2023/07/24 10:48:21;;;;;;;6.90;3.70;;;;;26.90;97599.00;;;;5138051;28;20121;-61
2023/07/24 10:50:50;;;;;;;3.42;3.13;;;;;26.70;97589.00;;;;5138545;28;20157;-61
2023/07/24 10:53:21;;;;;;;5.00;3.85;;;;;26.70;97589.00;;;;5137456;28;20071;-61
2023/07/24 10:55:50;;;;;;;5.03;3.72;;;;;26.80;97589.00;;;;5136062;28;20031;-61
2023/07/24 10:58:25;;;;;;;4.95;3.97;;;;;26.90;97594.00;;;;5137125;28;20048;-61
2023/07/24 11:00:51;;;;;;;5.65;3.70;;;;;26.90;97599.00;;;;5138595;28;20079;-61
2023/07/24 11:03:19;;;;;;;6.13;3.75;;;;;26.90;97597.00;;;;5139001;28;20051;-61
2023/07/24 11:05:47;;;;;;;4.53;3.65;;;;;26.90;97599.00;;;;5139172;28;20046;-61
2023/07/24 11:08:16;;;;;;;3.85;3.45;;;;;26.80;97593.00;;;;5136426;28;20103;-61
2023/07/24 11:10:47;;;;;;;7.95;4.10;;;;;26.60;97575.00;;;;5137872;28;20028;-62
2023/07/24 11:13:18;;;;;;;6.10;3.65;;;;;26.60;97575.00;;;;5135615;28;20040;-61
2023/07/24 11:15:46;;;;;;;4.10;3.40;;;;;26.70;97568.00;;;;5136161;28;20047;-62
2023/07/24 11:18:13;;;;;;;4.53;3.63;;;;;27.10;97567.00;;;;5131168;28;20043;-61
2023/07/24 11:20:45;;;;;;;6.30;4.47;;;;;27.30;97551.00;;;;5132459;28;20057;-62
2023/07/24 11:23:13;;;;;;;6.25;3.92;;;;;27.30;97540.00;;;;5130957;28;20065;-62
2023/07/24 11:25:42;;;;;;;6.22;3.92;;;;;27.40;97547.00;;;;5129385;28;20039;-61
2023/07/24 11:28:12;;;;;;;7.88;4.28;;;;;27.60;97560.00;;;;5129594;28;20567;-62
2023/07/24 11:30:39;;;;;;;6.43;4.35;;;;;27.50;97533.00;;;;5129439;28;20143;-62
2023/07/24 11:33:09;;;;;;;4.72;3.72;;;;;27.60;97529.00;;;;5113331;28;20051;-61
2023/07/24 11:35:40;;;;;;;4.82;4.25;;;;;28.00;97531.00;;;;5131737;28;20051;-62
2023/07/24 11:38:09;;;;;;;4.88;4.10;;;;;28.40;97532.00;;;;5132242;28;20073;-62
2023/07/24 11:40:41;;;;;;;6.25;4.38;;;;;28.70;97531.00;;;;5131335;28;20023;-62
2023/07/24 11:43:18;;;;;;;5.85;5.20;;;;;28.70;97533.00;;;;5132476;28;20044;-62
2023/07/24 11:45:48;;;;;;;5.50;4.22;;;;;28.40;97511.00;;;;5129888;28;20043;-63
2023/07/24 11:48:15;;;;;;;4.63;4.13;;;;;28.70;97516.00;;;;5128805;28;20047;-62
2023/07/24 11:50:44;;;;;;;6.55;4.70;;;;;28.90;97501.00;;;;5123539;28;20054;-63
2023/07/24 11:53:28;;;;;;;5.05;3.95;;;;;29.20;97502.00;;;;5115738;28;20459;-61
2023/07/24 11:55:57;;;;;;;6.32;4.35;;;;;29.40;97497.00;;;;5125162;28;20051;-63
2023/07/24 11:58:29;;;;;;;5.90;4.18;;;;;29.30;97501.00;;;;5120156;28;20039;-63
2023/07/24 12:00:56;;;;;;;5.82;4.80;;;;;29.30;97512.00;;;;5102695;28;20074;-63
2023/07/24 12:03:28;;;;;;;5.30;4.53;;;;;29.20;97495.00;;;;5121328;28;20114;-65
2023/07/24 12:05:55;;;;;;;5.97;4.60;;;;;29.30;97482.00;;;;5119975;28;20043;-66
2023/07/24 12:08:33;;;;;;;5.47;4.15;;;;;29.40;97466.00;;;;5119029;28;20082;-65
2023/07/24 12:11:01;;;;;;;6.38;4.78;;;;;29.40;97476.00;;;;5116272;28;20046;-66
2023/07/24 12:13:28;;;;;;;6.63;5.05;;;;;29.40;97471.00;;;;5115585;28;20050;-66
2023/07/24 12:15:55;;;;;;;5.35;4.60;;;;;29.40;97464.00;;;;5096950;28;20448;-65
2023/07/24 12:18:22;;;;;;;4.70;4.20;;;;;29.40;97472.00;;;;5115123;28;20043;-65
2023/07/24 12:20:49;;;;;;;7.00;4.75;;;;;29.10;97461.00;;;;5115227;28;20075;-66
2023/07/24 12:23:16;;;;;;;6.22;4.70;;;;;28.90;97471.00;;;;5096958;28;20066;-65